Time;durP1;ratioP1;P1;durP2;ratioP2;P2;SDS_P1;SDS_P2;PMS_P1;PMS_P2;Temp;Humidity;BMP_temperature;BMP_pressure;BME280_temperature;BME280_humidity;BME280_pressure;Samples;Min_cycle;Max_cycle;Signal;HPM_P1;HPM_P2
2023/05/29 00:02:18;;;;;;;14.65;6.43;;;;;;;;;;6216797;28;20264;-76
2023/05/29 00:05:18;;;;;;;18.43;6.33;;;;;;;;;;6219501;28;20034;-77
2023/05/29 00:08:19;;;;;;;19.53;6.60;;;;;;;;;;6219185;28;20032;-76
2023/05/29 00:11:20;;;;;;;9.87;4.20;;;;;;;;;;6212208;28;20022;-76
2023/05/29 00:14:20;;;;;;;14.15;5.68;;;;;;;;;;6251599;28;20055;-76
2023/05/29 00:17:21;;;;;;;14.77;5.73;;;;;;;;;;6249520;28;20013;-76
2023/05/29 00:20:21;;;;;;;9.63;5.93;;;;;;;;;;6267945;28;20020;-77
2023/05/29 00:23:21;;;;;;;14.25;5.72;;;;;;;;;;6266862;28;20024;-77
2023/05/29 00:26:22;;;;;;;11.10;5.60;;;;;;;;;;6249104;28;20029;-76
2023/05/29 00:29:22;;;;;;;15.20;5.63;;;;;;;;;;6267144;28;20025;-76
2023/05/29 00:32:22;;;;;;;7.83;4.93;;;;;;;;;;6268303;28;20037;-78
2023/05/29 00:35:22;;;;;;;9.42;5.24;;;;;;;;;;6268089;28;20032;-78
2023/05/29 00:38:24;;;;;;;12.35;5.30;;;;;;;;;;6262237;28;20045;-79
2023/05/29 00:41:24;;;;;;;11.73;5.90;;;;;;;;;;6263782;28;20099;-79
2023/05/29 00:44:24;;;;;;;15.38;5.00;;;;;;;;;;6267330;28;20028;-79
2023/05/29 00:47:25;;;;;;;8.80;4.47;;;;;;;;;;6264420;28;20029;-78
2023/05/29 00:50:26;;;;;;;10.83;5.17;;;;;;;;;;6228177;28;20084;-78
2023/05/29 00:53:27;;;;;;;10.60;5.05;;;;;;;;;;6248191;28;20017;-79
2023/05/29 00:56:27;;;;;;;11.52;4.55;;;;;;;;;;6267492;28;20124;-79
2023/05/29 00:59:29;;;;;;;8.63;4.33;;;;;;;;;;6263271;28;20062;-78
2023/05/29 01:02:29;;;;;;;7.97;4.53;;;;;;;;;;6267252;28;20017;-78
2023/05/29 01:05:32;;;;;;;8.63;4.07;;;;;;;;;;6263049;28;20055;-78
2023/05/29 01:08:32;;;;;;;10.75;5.40;;;;;;;;;;6265779;28;20017;-78
2023/05/29 01:11:38;;;;;;;11.17;4.37;;;;;;;;;;6243120;28;20032;-78
2023/05/29 01:14:41;;;;;;;10.60;5.05;;;;;;;;;;6267546;28;20330;-79
2023/05/29 01:18:02;;;;;;;8.75;4.70;;;;;;;;;;6267882;28;20028;-78
2023/05/29 01:21:21;;;;;;;13.88;4.28;;;;;;;;;;6268016;28;20150;-79
2023/05/29 01:24:45;;;;;;;8.07;4.70;;;;;;;;;;6267046;28;20127;-78
2023/05/29 01:27:47;;;;;;;9.80;4.60;;;;;;;;;;6251907;28;20024;-78
2023/05/29 01:30:49;;;;;;;8.45;4.05;;;;;;;;;;6269831;28;20040;-78
2023/05/29 01:33:53;;;;;;;9.30;3.83;;;;;;;;;;6273240;28;20020;-79
2023/05/29 01:36:53;;;;;;;9.93;4.18;;;;;;;;;;6269461;28;20054;-78
2023/05/29 01:39:54;;;;;;;8.63;4.13;;;;;;;;;;6266050;28;20021;-79
2023/05/29 01:42:54;;;;;;;9.27;3.70;;;;;;;;;;6262423;28;20103;-79
2023/05/29 01:45:55;;;;;;;9.25;3.85;;;;;;;;;;6275604;28;20078;-79
2023/05/29 01:48:55;;;;;;;9.77;4.03;;;;;;;;;;6271488;28;20032;-79
2023/05/29 01:51:55;;;;;;;14.43;4.60;;;;;;;;;;6263174;28;20056;-79
2023/05/29 01:54:56;;;;;;;11.52;4.72;;;;;;;;;;6249940;28;20024;-79
2023/05/29 01:57:56;;;;;;;10.60;3.57;;;;;;;;;;6253988;28;20025;-80
2023/05/29 02:00:57;;;;;;;7.03;4.18;;;;;;;;;;6249440;28;20025;-80
2023/05/29 02:03:59;;;;;;;7.53;4.77;;;;;;;;;;6273696;28;20025;-80
2023/05/29 02:06:59;;;;;;;7.75;4.10;;;;;;;;;;6269250;28;20395;-80
2023/05/29 02:10:00;;;;;;;12.60;4.90;;;;;;;;;;6271182;28;20021;-80
2023/05/29 02:13:00;;;;;;;9.40;4.43;;;;;;;;;;6267481;28;20045;-80
2023/05/29 02:16:00;;;;;;;11.05;4.53;;;;;;;;;;6253767;28;20074;-79
2023/05/29 02:19:01;;;;;;;10.45;4.50;;;;;;;;;;6266647;28;20256;-80
2023/05/29 02:22:02;;;;;;;9.48;3.97;;;;;;;;;;6271469;28;20028;-79
2023/05/29 02:25:02;;;;;;;10.90;4.43;;;;;;;;;;6270917;28;20033;-80
2023/05/29 02:28:03;;;;;;;9.57;4.40;;;;;;;;;;6269914;28;20450;-79
2023/05/29 02:31:03;;;;;;;8.27;4.55;;;;;;;;;;6251825;28;20479;-80
2023/05/29 02:34:03;;;;;;;13.97;5.90;;;;;;;;;;6269670;28;20036;-80
2023/05/29 02:37:04;;;;;;;14.43;4.83;;;;;;;;;;6270241;28;20024;-79
2023/05/29 02:40:06;;;;;;;10.95;4.75;;;;;;;;;;6268910;28;20092;-79
2023/05/29 02:43:07;;;;;;;8.57;5.40;;;;;;;;;;6268589;28;20027;-80
2023/05/29 02:46:07;;;;;;;11.82;5.88;;;;;;;;;;6263834;28;20025;-79
2023/05/29 02:49:08;;;;;;;9.87;4.27;;;;;;;;;;6269516;28;20480;-79
2023/05/29 02:52:08;;;;;;;5.17;2.33;;;;;;;;;;6269962;28;20078;-79
2023/05/29 02:55:10;;;;;;;13.47;4.40;;;;;;;;;;6269877;28;20669;-79
2023/05/29 02:58:11;;;;;;;11.90;4.63;;;;;;;;;;6265264;28;20028;-80
2023/05/29 03:01:11;;;;;;;9.35;4.38;;;;;;;;;;6269670;28;20025;-80
2023/05/29 03:04:12;;;;;;;11.68;4.63;;;;;;;;;;6248413;28;20616;-80
2023/05/29 03:07:12;;;;;;;13.40;6.70;;;;;;;;;;6270363;28;20035;-80
2023/05/29 03:10:17;;;;;;;14.90;6.05;;;;;;;;;;6269953;28;20112;-80
2023/05/29 03:13:18;;;;;;;17.27;5.13;;;;;;;;;;6268152;28;20033;-80
2023/05/29 03:16:18;;;;;;;10.15;5.03;;;;;;;;;;6269724;28;20051;-80
2023/05/29 03:19:19;;;;;;;13.63;6.20;;;;;;;;;;6269238;28;20035;-80
2023/05/29 03:22:19;;;;;;;19.17;9.13;;;;;;;;;;6268287;28;20271;-80
2023/05/29 03:25:20;;;;;;;23.77;11.15;;;;;;;;;;6269924;28;20430;-80
2023/05/29 03:28:20;;;;;;;21.77;11.73;;;;;;;;;;6245144;28;20021;-80
2023/05/29 03:31:21;;;;;;;24.17;10.00;;;;;;;;;;6269172;28;20017;-80
2023/05/29 03:34:21;;;;;;;25.23;11.67;;;;;;;;;;6269356;28;20049;-80
2023/05/29 03:37:21;;;;;;;35.57;11.37;;;;;;;;;;6251355;28;20021;-80
2023/05/29 03:40:21;;;;;;;17.17;9.80;;;;;;;;;;6266871;28;20819;-80
2023/05/29 03:43:21;;;;;;;25.90;11.50;;;;;;;;;;6267832;28;20275;-80
2023/05/29 03:46:22;;;;;;;20.80;10.37;;;;;;;;;;6247388;28;20009;-80
2023/05/29 03:49:22;;;;;;;23.10;11.38;;;;;;;;;;6259364;28;20807;-80
2023/05/29 03:52:22;;;;;;;23.60;11.48;;;;;;;;;;6248433;28;20017;-80
2023/05/29 03:55:22;;;;;;;23.20;11.93;;;;;;;;;;6268651;28;20463;-80
2023/05/29 03:58:22;;;;;;;22.00;13.03;;;;;;;;;;6267199;28;20542;-80
2023/05/29 04:01:23;;;;;;;22.33;11.93;;;;;;;;;;6245810;28;20515;-77
2023/05/29 04:04:23;;;;;;;24.90;11.97;;;;;;;;;;6256920;28;20036;-78
2023/05/29 04:07:24;;;;;;;27.13;13.83;;;;;;;;;;6249821;28;20497;-77
2023/05/29 04:10:24;;;;;;;22.47;12.50;;;;;;;;;;6247296;28;20024;-78
2023/05/29 04:13:24;;;;;;;23.77;11.20;;;;;;;;;;6263247;28;20456;-77
2023/05/29 04:16:25;;;;;;;19.93;9.00;;;;;;;;;;6265466;28;20013;-77
2023/05/29 04:19:25;;;;;;;17.77;8.17;;;;;;;;;;6264172;28;20772;-77
2023/05/29 04:22:25;;;;;;;19.30;11.23;;;;;;;;;;6267939;28;20263;-77
2023/05/29 04:25:25;;;;;;;21.93;9.60;;;;;;;;;;6249910;28;20736;-76
2023/05/29 04:28:26;;;;;;;19.85;7.63;;;;;;;;;;6267659;28;20025;-77
2023/05/29 04:31:27;;;;;;;13.60;7.43;;;;;;;;;;6263426;28;20025;-78
2023/05/29 04:34:27;;;;;;;17.07;8.63;;;;;;;;;;6268251;28;20015;-77
2023/05/29 04:37:28;;;;;;;16.57;9.17;;;;;;;;;;6264514;28;20537;-78
2023/05/29 04:40:31;;;;;;;14.98;7.97;;;;;;;;;;6267776;28;20039;-77
2023/05/29 04:43:31;;;;;;;13.63;7.47;;;;;;;;;;6267483;28;20562;-77
2023/05/29 04:46:32;;;;;;;14.63;7.57;;;;;;;;;;6267695;28;20017;-78
2023/05/29 04:49:32;;;;;;;13.97;6.13;;;;;;;;;;6248995;28;20017;-78
2023/05/29 04:52:32;;;;;;;11.77;6.33;;;;;;;;;;6249531;28;20029;-77
2023/05/29 04:55:32;;;;;;;9.83;6.57;;;;;;;;;;6264386;28;20086;-77
2023/05/29 04:58:33;;;;;;;11.17;6.03;;;;;;;;;;6264429;28;20017;-77
2023/05/29 05:01:36;;;;;;;11.47;4.70;;;;;;;;;;6248868;28;20059;-78
2023/05/29 05:04:36;;;;;;;11.13;5.97;;;;;;;;;;6260719;28;20046;-78
2023/05/29 05:07:37;;;;;;;12.07;6.90;;;;;;;;;;6258365;28;20108;-78
2023/05/29 05:10:37;;;;;;;11.30;5.57;;;;;;;;;;6266635;28;20025;-78
2023/05/29 05:13:37;;;;;;;13.03;5.60;;;;;;;;;;6266614;28;20029;-78
2023/05/29 05:16:37;;;;;;;9.27;4.75;;;;;;;;;;6264342;28;20021;-77
2023/05/29 05:19:37;;;;;;;9.80;5.47;;;;;;;;;;6248932;28;20028;-78
2023/05/29 05:22:38;;;;;;;11.47;5.43;;;;;;;;;;6265066;28;20045;-77
2023/05/29 05:25:38;;;;;;;13.70;4.67;;;;;;;;;;6248875;28;20074;-78
2023/05/29 05:28:38;;;;;;;10.40;4.60;;;;;;;;;;6270135;28;20025;-77
2023/05/29 05:31:39;;;;;;;8.63;4.60;;;;;;;;;;6275911;28;20033;-78
2023/05/29 05:34:39;;;;;;;10.37;4.67;;;;;;;;;;6271443;28;20017;-78
2023/05/29 05:37:39;;;;;;;10.13;4.50;;;;;;;;;;6269035;28;20066;-78
2023/05/29 05:40:40;;;;;;;12.10;5.23;;;;;;;;;;6260151;28;20078;-78
2023/05/29 05:43:40;;;;;;;11.23;4.50;;;;;;;;;;6261238;28;20067;-78
2023/05/29 05:46:41;;;;;;;12.90;4.80;;;;;;;;;;6252752;28;20026;-78
2023/05/29 05:49:43;;;;;;;10.63;4.95;;;;;;;;;;6248958;28;20021;-78
2023/05/29 05:52:43;;;;;;;13.40;4.30;;;;;;;;;;6270544;28;20024;-78
2023/05/29 05:55:43;;;;;;;10.93;3.93;;;;;;;;;;6267937;28;20062;-78
2023/05/29 05:58:43;;;;;;;10.10;4.10;;;;;;;;;;6253193;28;20578;-78
2023/05/29 06:01:44;;;;;;;15.70;5.47;;;;;;;;;;6253551;28;20491;-78
2023/05/29 06:04:44;;;;;;;13.37;5.00;;;;;;;;;;6266643;28;20021;-78
2023/05/29 06:07:44;;;;;;;12.38;4.40;;;;;;;;;;6266133;28;20017;-78
2023/05/29 06:10:44;;;;;;;9.97;4.27;;;;;;;;;;6268629;28;20020;-78
2023/05/29 06:13:45;;;;;;;12.90;4.93;;;;;;;;;;6270414;28;20037;-78
2023/05/29 06:16:46;;;;;;;21.88;5.88;;;;;;;;;;6268026;28;20024;-76
2023/05/29 06:19:47;;;;;;;12.85;4.97;;;;;;;;;;6267917;28;20045;-76
2023/05/29 06:22:50;;;;;;;18.43;4.90;;;;;;;;;;6267741;28;20013;-78
2023/05/29 06:25:51;;;;;;;13.02;5.38;;;;;;;;;;6267166;28;20465;-78
2023/05/29 06:28:51;;;;;;;16.88;5.88;;;;;;;;;;6249183;28;20025;-78
2023/05/29 06:31:51;;;;;;;15.33;6.63;;;;;;;;;;6250929;28;20087;-78
2023/05/29 06:34:51;;;;;;;14.83;5.33;;;;;;;;;;6263473;28;20539;-78
2023/05/29 06:37:53;;;;;;;11.53;4.67;;;;;;;;;;6268928;28;20087;-78
2023/05/29 06:40:53;;;;;;;13.80;5.15;;;;;;;;;;6246450;28;20017;-78
2023/05/29 06:43:55;;;;;;;15.93;5.55;;;;;;;;;;6268946;28;20112;-78
2023/05/29 06:46:55;;;;;;;18.38;5.75;;;;;;;;;;6266161;28;20574;-78
2023/05/29 06:49:55;;;;;;;14.03;5.63;;;;;;;;;;6266995;28;20055;-78
2023/05/29 06:52:55;;;;;;;20.13;5.47;;;;;;;;;;6268768;28;20060;-79
2023/05/29 06:55:55;;;;;;;22.37;7.37;;;;;;;;;;6264970;28;20486;-79
2023/05/29 06:58:56;;;;;;;18.65;7.20;;;;;;;;;;6264914;28;20056;-78
2023/05/29 07:01:56;;;;;;;23.60;7.97;;;;;;;;;;6269644;28;20502;-79
2023/05/29 07:04:56;;;;;;;;;;;;;;;;;;6250952;28;20108;-79
2023/05/29 07:07:56;;;;;;;27.05;8.55;;;;;;;;;;6269376;28;19909;-79
2023/05/29 07:10:57;;;;;;;;;;;;;;;;;;6264457;28;20068;-79
2023/05/29 07:13:57;;;;;;;28.52;8.50;;;;;;;;;;6265776;28;19924;-79
2023/05/29 07:16:57;;;;;;;25.98;7.03;;;;;;;;;;6268955;28;20028;-78
2023/05/29 07:19:57;;;;;;;;;;;;;;;;;;6263897;28;20032;-79
2023/05/29 07:22:57;;;;;;;24.02;7.30;;;;;;;;;;6267210;28;20466;-78
2023/05/29 07:25:58;;;;;;;;;;;;;;;;;;6266666;28;20104;-79
2023/05/29 07:28:58;;;;;;;16.38;6.00;;;;;;;;;;6268635;28;19916;-78
2023/05/29 07:31:58;;;;;;;;;;;;;;;;;;6269932;28;20540;-79
2023/05/29 07:34:58;;;;;;;16.13;5.20;;;;;;;;;;6261753;28;19989;-78
2023/05/29 07:37:58;;;;;;;;;;;;;;;;;;6264912;28;20028;-79
2023/05/29 07:40:59;;;;;;;13.48;4.60;;;;;;;;;;6263437;28;19929;-79
2023/05/29 07:43:59;;;;;;;;;;;;;;;;;;6266876;28;20029;-79
2023/05/29 07:46:59;;;;;;;14.93;3.53;;;;;;;;;;6269912;28;20424;-79
2023/05/29 07:50:00;;;;;;;9.05;3.47;;;;;;;;;;6266384;28;20110;-79
2023/05/29 07:53:00;;;;;;;12.00;3.40;;;;;;;;;;6264350;28;20052;-78
2023/05/29 07:56:00;;;;;;;13.80;3.50;;;;;;;;;;6264468;28;20032;-79
2023/05/29 07:59:00;;;;;;;13.70;4.30;;;;;;;;;;6264609;28;20055;-79
2023/05/29 08:02:03;;;;;;;12.77;3.43;;;;;;;;;;6267297;28;20025;-79
2023/05/29 08:05:03;;;;;;;8.85;3.13;;;;;;;;;;6262746;28;20029;-79
2023/05/29 08:08:04;;;;;;;9.95;3.55;;;;;;;;;;6263302;28;20047;-79
2023/05/29 08:11:32;;;;;;;10.23;3.80;;;;;;;;;;6264696;28;20064;-79
2023/05/29 08:14:32;;;;;;;7.28;3.10;;;;;;;;;;6265791;28;20048;-79
2023/05/29 08:17:32;;;;;;;9.63;3.67;;;;;;;;;;6266363;28;20555;-79
2023/05/29 08:20:34;;;;;;;9.80;3.27;;;;;;;;;;6233278;28;20033;-79
2023/05/29 08:23:34;;;;;;;8.35;3.70;;;;;;;;;;6250243;28;20025;-78
2023/05/29 08:26:35;;;;;;;11.73;4.90;;;;;;;;;;6249553;28;20106;-78
2023/05/29 08:29:36;;;;;;;10.30;3.60;;;;;;;;;;6244541;28;20024;-79
2023/05/29 08:32:36;;;;;;;6.90;3.08;;;;;;;;;;6267194;28;20021;-79
2023/05/29 08:35:37;;;;;;;8.67;3.00;;;;;;;;;;6268266;28;20051;-78
2023/05/29 08:38:37;;;;;;;10.32;3.25;;;;;;;;;;6256658;28;20028;-79
2023/05/29 08:41:53;;;;;;;11.80;4.13;;;;;;;;;;6267431;28;20112;-79
2023/05/29 08:44:57;;;;;;;12.85;4.43;;;;;;;;;;6251423;28;20036;-79
2023/05/29 08:47:57;;;;;;;8.10;3.58;;;;;;;;;;6267222;28;20029;-79
2023/05/29 08:50:58;;;;;;;8.83;3.67;;;;;;;;;;6267582;28;20063;-79
2023/05/29 08:53:58;;;;;;;;;;;;;;;;;;6262477;28;20267;-79
2023/05/29 08:56:59;;;;;;;8.98;3.13;;;;;;;;;;6267354;28;20401;-79
2023/05/29 09:00:00;;;;;;;8.32;2.47;;;;;;;;;;6262940;28;20474;-78
2023/05/29 09:03:00;;;;;;;;;;;;;;;;;;6267666;28;20035;-78
2023/05/29 09:06:03;;;;;;;5.97;3.03;;;;;;;;;;6261842;28;19909;-79
2023/05/29 09:09:04;;;;;;;5.93;3.55;;;;;;;;;;6263203;28;20027;-79
2023/05/29 09:12:04;;;;;;;5.13;2.65;;;;;;;;;;6265400;28;20442;-79
2023/05/29 09:15:04;;;;;;;;;;;;;;;;;;6266696;28;20037;-79
2023/05/29 09:18:04;;;;;;;9.43;3.13;;;;;;;;;;6262860;28;19928;-79
2023/05/29 09:21:05;;;;;;;;;;;;;;;;;;6267112;28;20029;-79
2023/05/29 09:24:05;;;;;;;6.65;2.72;;;;;;;;;;6267228;28;19909;-79
2023/05/29 09:27:07;;;;;;;;;;;;;;;;;;6256331;28;20501;-79
2023/05/29 09:30:09;;;;;;;6.60;2.65;;;;;;;;;;6263041;28;19915;-79
2023/05/29 09:33:11;;;;;;;7.18;3.10;;;;;;;;;;6262697;28;20510;-79
2023/05/29 09:36:19;;;;;;;5.90;2.40;;;;;;;;;;6264136;28;20031;-79
2023/05/29 09:39:19;;;;;;;6.60;2.40;;;;;;;;;;6264734;28;20465;-79
2023/05/29 09:42:20;;;;;;;;;;;;;;;;;;6264044;28;20070;-79
2023/05/29 09:45:21;;;;;;;10.30;2.53;;;;;;;;;;6251125;28;19948;-78
2023/05/29 09:48:25;;;;;;;10.52;2.85;;;;;;;;;;6266951;28;20033;-78
2023/05/29 09:51:26;;;;;;;7.35;2.80;;;;;;;;;;6271063;28;20495;-77
2023/05/29 09:54:29;;;;;;;8.90;2.53;;;;;;;;;;6253596;28;20021;-77
2023/05/29 09:57:30;;;;;;;7.03;3.35;;;;;;;;;;6271410;28;20036;-77
2023/05/29 10:00:32;;;;;;;7.10;3.03;;;;;;;;;;6249403;28;20025;-77
2023/05/29 10:03:34;;;;;;;8.77;3.08;;;;;;;;;;6271195;28;20480;-79
2023/05/29 10:06:35;;;;;;;6.30;2.67;;;;;;;;;;6254084;28;20544;-78
2023/05/29 10:09:35;;;;;;;;;;;;;;;;;;6269953;28;20017;-78
2023/05/29 10:12:38;;;;;;;9.50;4.15;;;;;;;;;;6271795;28;19932;-77
2023/05/29 10:15:40;;;;;;;6.13;2.97;;;;;;;;;;6271959;28;20070;-78
2023/05/29 10:18:49;;;;;;;6.53;2.53;;;;;;;;;;6266298;28;20039;-78
2023/05/29 10:21:51;;;;;;;3.97;2.80;;;;;;;;;;6273952;28;20480;-78
2023/05/29 10:24:52;;;;;;;5.47;2.42;;;;;;;;;;6252517;28;20483;-77
2023/05/29 10:27:53;;;;;;;5.60;2.50;;;;;;;;;;6271038;28;20067;-77
2023/05/29 10:30:53;;;;;;;;;;;;;;;;;;6272065;28;20701;-77
2023/05/29 10:34:04;;;;;;;8.90;3.70;;;;;;;;;;6254066;28;20366;-78
2023/05/29 10:37:10;;;;;;;9.25;3.20;;;;;;;;;;6271829;28;20509;-77
2023/05/29 10:40:14;;;;;;;7.40;3.25;;;;;;;;;;6271079;28;20092;-77
2023/05/29 10:43:44;;;;;;;7.85;3.30;;;;;;;;;;6267019;28;20112;-77
2023/05/29 10:46:46;;;;;;;8.55;3.65;;;;;;;;;;6250220;28;20029;-78
2023/05/29 10:49:51;;;;;;;6.47;3.25;;;;;;;;;;6254259;28;20047;-77
2023/05/29 10:52:51;;;;;;;7.13;3.20;;;;;;;;;;6272779;28;20075;-77
2023/05/29 10:55:51;;;;;;;;;;;;;;;;;;6265254;28;20782;-77
2023/05/29 10:58:55;;;;;;;7.93;3.38;;;;;;;;;;6272365;28;19943;-77
2023/05/29 11:01:57;;;;;;;10.52;2.95;;;;;;;;;;6267186;28;20025;-77
2023/05/29 11:05:17;;;;;;;9.43;3.00;;;;;;;;;;6256058;28;20266;-77
2023/05/29 11:08:28;;;;;;;5.50;2.60;;;;;;;;;;6272258;28;20402;-77
2023/05/29 11:11:29;;;;;;;10.13;3.42;;;;;;;;;;6273448;28;20070;-77
2023/05/29 11:14:43;;;;;;;6.65;2.65;;;;;;;;;;6269032;28;20052;-77
2023/05/29 11:17:45;;;;;;;4.82;2.95;;;;;;;;;;6263860;28;20475;-77
2023/05/29 11:20:53;;;;;;;5.63;3.05;;;;;;;;;;6263047;28;20096;-77
2023/05/29 11:23:53;;;;;;;9.00;3.10;;;;;;;;;;6268707;28;20036;-77
2023/05/29 11:26:54;;;;;;;8.82;3.53;;;;;;;;;;6269206;28;20368;-77
2023/05/29 11:29:56;;;;;;;4.90;3.25;;;;;;;;;;6269122;28;20024;-77
2023/05/29 11:33:01;;;;;;;8.35;3.33;;;;;;;;;;6267758;28;20048;-77
2023/05/29 11:36:01;;;;;;;7.03;3.60;;;;;;;;;;6269179;28;20059;-77
2023/05/29 11:39:03;;;;;;;10.97;5.00;;;;;;;;;;6248148;28;20238;-77
2023/05/29 11:42:03;;;;;;;10.18;5.60;;;;;;;;;;6268433;28;20267;-77
2023/05/29 11:45:13;;;;;;;10.05;5.05;;;;;;;;;;6263812;28;20021;-77
2023/05/29 11:48:13;;;;;;;10.75;5.07;;;;;;;;;;6267621;28;20013;-77
2023/05/29 11:51:14;;;;;;;;;;;;;;;;;;6267385;28;20033;-77
2023/05/29 11:54:19;;;;;;;11.88;4.65;;;;;;;;;;6269236;28;20291;-77
2023/05/29 11:57:19;;;;;;;9.13;4.45;;;;;;;;;;6268191;28;20055;-77
2023/05/29 12:00:20;;;;;;;;;;;;;;;;;;6274886;28;20024;-77
2023/05/29 12:03:23;;;;;;;10.90;5.43;;;;;;;;;;6289477;28;19931;-79
2023/05/29 12:06:38;;;;;;;11.38;4.50;;;;;;;;;;6289334;28;20016;-76
2023/05/29 12:09:38;;;;;;;10.98;4.90;;;;;;;;;;6278410;28;20039;-78
2023/05/29 12:12:39;;;;;;;14.00;5.33;;;;;;;;;;6273839;28;20021;-79
2023/05/29 12:15:40;;;;;;;10.80;4.57;;;;;;;;;;6273743;28;20490;-78
2023/05/29 12:18:40;;;;;;;11.68;4.20;;;;;;;;;;6245036;28;20021;-78
2023/05/29 12:21:44;;;;;;;9.93;4.30;;;;;;;;;;6268956;28;20035;-78
2023/05/29 12:24:44;;;;;;;6.55;3.83;;;;;;;;;;6268229;28;20028;-78
2023/05/29 12:27:48;;;;;;;9.43;4.27;;;;;;;;;;6249934;28;20021;-77
2023/05/29 12:30:51;;;;;;;8.35;3.90;;;;;;;;;;6259829;28;20021;-78
2023/05/29 12:33:52;;;;;;;9.43;4.43;;;;;;;;;;6262974;28;20021;-78
2023/05/29 12:36:52;;;;;;;8.73;4.40;;;;;;;;;;6249372;28;20510;-78
2023/05/29 12:40:11;;;;;;;8.17;3.57;;;;;;;;;;6247817;28;20028;-78
2023/05/29 12:43:11;;;;;;;5.90;3.25;;;;;;;;;;6265449;28;20021;-78
2023/05/29 12:46:12;;;;;;;11.03;3.23;;;;;;;;;;6268278;28;20090;-79
2023/05/29 12:49:13;;;;;;;5.97;2.97;;;;;;;;;;6267040;28;20267;-78
2023/05/29 12:52:15;;;;;;;9.65;3.58;;;;;;;;;;6252820;28;20032;-78
2023/05/29 12:55:15;;;;;;;8.05;4.00;;;;;;;;;;6273463;28;20055;-80
2023/05/29 12:58:15;;;;;;;10.02;4.22;;;;;;;;;;6267439;28;20498;-78
2023/05/29 13:01:16;;;;;;;9.70;4.93;;;;;;;;;;6250427;28;20032;-78
2023/05/29 13:04:16;;;;;;;9.95;3.97;;;;;;;;;;6265752;28;20025;-78
2023/05/29 13:07:16;;;;;;;7.10;3.17;;;;;;;;;;6268361;28;20021;-79
2023/05/29 13:10:17;;;;;;;5.23;2.90;;;;;;;;;;6266788;28;20025;-79
2023/05/29 13:13:18;;;;;;;8.63;3.58;;;;;;;;;;6265222;28;20094;-79
2023/05/29 13:16:18;;;;;;;5.75;3.08;;;;;;;;;;6268459;28;20017;-79
2023/05/29 13:19:18;;;;;;;7.63;3.03;;;;;;;;;;6269734;28;20537;-79
2023/05/29 13:22:18;;;;;;;9.03;3.30;;;;;;;;;;6274859;28;20021;-79
2023/05/29 13:25:21;;;;;;;9.10;3.13;;;;;;;;;;6275762;28;20024;-79
2023/05/29 13:28:21;;;;;;;6.32;2.92;;;;;;;;;;6255996;28;20053;-79
2023/05/29 13:31:21;;;;;;;5.67;2.93;;;;;;;;;;6271641;28;20499;-79
2023/05/29 13:34:24;;;;;;;8.60;3.43;;;;;;;;;;6267421;28;20547;-79
2023/05/29 13:37:24;;;;;;;5.65;3.17;;;;;;;;;;6276174;28;20021;-79
2023/05/29 13:40:25;;;;;;;7.47;3.67;;;;;;;;;;6261984;28;20027;-79
2023/05/29 13:43:25;;;;;;;5.70;3.70;;;;;;;;;;6274240;28;20260;-79
2023/05/29 13:46:26;;;;;;;7.33;3.27;;;;;;;;;;6274436;28;20045;-79
2023/05/29 13:49:27;;;;;;;5.68;3.30;;;;;;;;;;6273699;28;20039;-79
2023/05/29 13:52:27;;;;;;;6.70;3.33;;;;;;;;;;6270600;28;20025;-79
2023/05/29 13:55:27;;;;;;;6.93;3.77;;;;;;;;;;6272914;28;20335;-78
2023/05/29 13:58:27;;;;;;;7.47;3.80;;;;;;;;;;6270991;28;20086;-80
2023/05/29 14:01:27;;;;;;;10.53;4.20;;;;;;;;;;6268744;28;20037;-80
2023/05/29 14:04:31;;;;;;;9.00;3.73;;;;;;;;;;6268680;28;20742;-77
2023/05/29 14:07:31;;;;;;;11.95;4.10;;;;;;;;;;6271031;28;20482;-77
2023/05/29 14:10:31;;;;;;;7.90;3.30;;;;;;;;;;6270762;28;20028;-77
2023/05/29 14:13:31;;;;;;;5.87;2.97;;;;;;;;;;6271902;28;20297;-78
2023/05/29 14:16:32;;;;;;;6.80;3.22;;;;;;;;;;6250109;28;20091;-78
2023/05/29 14:19:32;;;;;;;8.80;3.75;;;;;;;;;;6271466;28;20743;-78
2023/05/29 14:22:33;;;;;;;10.03;3.67;;;;;;;;;;6274757;28;20025;-80
2023/05/29 14:25:33;;;;;;;9.07;3.43;;;;;;;;;;6273220;28;21015;-79
2023/05/29 14:28:33;;;;;;;9.33;4.30;;;;;;;;;;6273557;28;20403;-79
2023/05/29 14:31:34;;;;;;;7.80;3.63;;;;;;;;;;6266321;28;20032;-79
2023/05/29 14:34:34;;;;;;;11.83;3.53;;;;;;;;;;6269383;28;20019;-79
2023/05/29 14:37:35;;;;;;;5.53;3.13;;;;;;;;;;6269462;28;20248;-79
2023/05/29 14:40:35;;;;;;;5.97;3.35;;;;;;;;;;6251460;28;20100;-79
2023/05/29 14:43:37;;;;;;;8.63;3.05;;;;;;;;;;6270247;28;20448;-79
2023/05/29 14:46:38;;;;;;;6.93;3.22;;;;;;;;;;6270581;28;20017;-79
2023/05/29 14:49:38;;;;;;;6.10;3.92;;;;;;;;;;6269187;28;20443;-78
2023/05/29 14:52:38;;;;;;;7.07;3.40;;;;;;;;;;6252630;28;20031;-79
2023/05/29 14:55:39;;;;;;;11.23;3.30;;;;;;;;;;6265470;28;20134;-78
2023/05/29 14:58:41;;;;;;;7.22;3.58;;;;;;;;;;6271014;28;20260;-78
2023/05/29 15:01:42;;;;;;;9.15;3.67;;;;;;;;;;6270533;28;20032;-78
2023/05/29 15:04:42;;;;;;;4.82;3.03;;;;;;;;;;6268773;28;20032;-79
2023/05/29 15:07:42;;;;;;;6.67;3.97;;;;;;;;;;6264910;28;20013;-78
2023/05/29 15:10:42;;;;;;;10.20;3.15;;;;;;;;;;6269494;28;20025;-78
2023/05/29 15:13:43;;;;;;;4.72;2.90;;;;;;;;;;6269497;28;20122;-78
2023/05/29 15:16:44;;;;;;;5.70;2.80;;;;;;;;;;6247243;28;20424;-78
2023/05/29 15:19:44;;;;;;;8.07;3.38;;;;;;;;;;6270281;28;20130;-78
2023/05/29 15:22:44;;;;;;;7.40;3.58;;;;;;;;;;6267554;28;20108;-78
2023/05/29 15:25:45;;;;;;;7.82;2.50;;;;;;;;;;6269025;28;20040;-78
2023/05/29 15:28:45;;;;;;;6.15;2.45;;;;;;;;;;6268935;28;20048;-78
2023/05/29 15:31:45;;;;;;;6.55;2.70;;;;;;;;;;6250580;28;20027;-78
2023/05/29 15:34:45;;;;;;;5.83;2.60;;;;;;;;;;6267816;28;20020;-78
2023/05/29 15:37:46;;;;;;;7.20;2.50;;;;;;;;;;6251624;28;20036;-78
2023/05/29 15:40:47;;;;;;;4.07;2.37;;;;;;;;;;6270130;28;20036;-78
2023/05/29 15:43:48;;;;;;;4.57;2.50;;;;;;;;;;6272733;28;20017;-78
2023/05/29 15:46:48;;;;;;;;;;;;;;;;;;6271807;28;20448;-78
2023/05/29 15:49:48;;;;;;;5.00;2.55;;;;;;;;;;6255054;28;19916;-79
2023/05/29 15:52:48;;;;;;;;;;;;;;;;;;6250383;28;20033;-78
2023/05/29 15:55:49;;;;;;;10.13;3.58;;;;;;;;;;6254528;28;19915;-78
2023/05/29 15:58:49;;;;;;;;;;;;;;;;;;6253333;28;20630;-78
2023/05/29 16:01:50;;;;;;;6.35;2.78;;;;;;;;;;6273433;28;19916;-78
2023/05/29 16:04:51;;;;;;;7.70;3.53;;;;;;;;;;6275453;28;20021;-78
2023/05/29 16:07:52;;;;;;;6.13;2.47;;;;;;;;;;6254332;28;20020;-78
2023/05/29 16:10:53;;;;;;;9.63;4.23;;;;;;;;;;6267171;28;20021;-80
2023/05/29 16:13:54;;;;;;;7.82;3.08;;;;;;;;;;6243845;28;20042;-77
2023/05/29 16:16:54;;;;;;;5.70;2.50;;;;;;;;;;6247921;28;20033;-78
2023/05/29 16:19:55;;;;;;;4.23;2.40;;;;;;;;;;6244734;28;20091;-77
2023/05/29 16:22:56;;;;;;;7.60;2.90;;;;;;;;;;6233629;28;20418;-77
2023/05/29 16:25:56;;;;;;;7.13;2.53;;;;;;;;;;6248866;28;20044;-78
2023/05/29 16:29:00;;;;;;;5.10;2.63;;;;;;;;;;6245203;28;20057;-78
2023/05/29 16:32:01;;;;;;;6.90;2.90;;;;;;;;;;6235545;28;20018;-78
2023/05/29 16:35:01;;;;;;;4.57;2.40;;;;;;;;;;6256448;28;20025;-78
2023/05/29 16:38:02;;;;;;;6.00;2.65;;;;;;;;;;6240204;28;20555;-77
2023/05/29 16:41:03;;;;;;;10.23;2.60;;;;;;;;;;6242055;28;20483;-77
2023/05/29 16:44:03;;;;;;;7.00;2.45;;;;;;;;;;6243275;28;20654;-77
2023/05/29 16:47:03;;;;;;;9.83;3.20;;;;;;;;;;6241450;28;20014;-77
2023/05/29 16:50:04;;;;;;;7.77;3.13;;;;;;;;;;6240391;28;20471;-77
2023/05/29 16:53:05;;;;;;;9.77;3.10;;;;;;;;;;6243303;28;20276;-79
2023/05/29 16:56:06;;;;;;;6.53;2.65;;;;;;;;;;6237782;28;20079;-79
2023/05/29 16:59:07;;;;;;;5.75;2.47;;;;;;;;;;6241422;28;20129;-78
2023/05/29 17:02:07;;;;;;;8.60;2.60;;;;;;;;;;6238320;28;20021;-78
2023/05/29 17:05:08;;;;;;;8.40;2.77;;;;;;;;;;6242520;28;20044;-76
2023/05/29 17:08:09;;;;;;;4.57;2.87;;;;;;;;;;6243108;28;20520;-77
2023/05/29 17:11:10;;;;;;;7.53;3.20;;;;;;;;;;6242248;28;20024;-77
2023/05/29 17:14:10;;;;;;;6.97;2.88;;;;;;;;;;6259191;28;20777;-78
2023/05/29 17:17:10;;;;;;;4.23;2.43;;;;;;;;;;6248991;28;20071;-78
2023/05/29 17:20:11;;;;;;;6.25;3.13;;;;;;;;;;6266654;28;20025;-78
2023/05/29 17:23:13;;;;;;;4.88;2.65;;;;;;;;;;6265930;28;20059;-78
2023/05/29 17:26:13;;;;;;;13.23;4.20;;;;;;;;;;6265543;28;20720;-78
2023/05/29 17:29:15;;;;;;;9.30;3.00;;;;;;;;;;6267413;28;20032;-78
2023/05/29 17:32:15;;;;;;;6.35;3.58;;;;;;;;;;6266815;28;20044;-78
2023/05/29 17:35:17;;;;;;;9.50;3.10;;;;;;;;;;6267065;28;20558;-78
2023/05/29 17:38:17;;;;;;;6.00;2.72;;;;;;;;;;6260984;28;20029;-78
2023/05/29 17:41:17;;;;;;;5.33;2.50;;;;;;;;;;6265705;28;20040;-78
2023/05/29 17:44:17;;;;;;;7.20;2.30;;;;;;;;;;6263583;28;20179;-78
2023/05/29 17:47:18;;;;;;;7.40;3.17;;;;;;;;;;6265674;28;20044;-78
2023/05/29 17:50:19;;;;;;;5.28;2.58;;;;;;;;;;6265697;28;20029;-78
2023/05/29 17:53:20;;;;;;;3.90;2.72;;;;;;;;;;6247202;28;20033;-77
2023/05/29 17:56:22;;;;;;;4.53;2.40;;;;;;;;;;6248289;28;20035;-78
2023/05/29 17:59:22;;;;;;;10.48;3.45;;;;;;;;;;6266491;28;20384;-78
2023/05/29 18:02:23;;;;;;;4.87;2.80;;;;;;;;;;6266109;28;20029;-78
2023/05/29 18:05:23;;;;;;;8.45;2.70;;;;;;;;;;6247666;28;20108;-78
2023/05/29 18:08:23;;;;;;;5.95;3.20;;;;;;;;;;6269793;28;20101;-78